createdAt,value
2022-12-11T00:01:25.394Z,99327.16
2022-12-11T00:03:55.200Z,99320.11
2022-12-11T00:06:24.846Z,99322.48
2022-12-11T00:08:55.127Z,99323.58
2022-12-11T00:11:26.725Z,99323.34
2022-12-11T00:13:55.995Z,99323.21
2022-12-11T00:16:27.390Z,99333.60
2022-12-11T00:18:56.434Z,99332.72
2022-12-11T00:21:25.007Z,99325.79
2022-12-11T00:23:53.969Z,99329.64
2022-12-11T00:26:22.914Z,99326.11
2022-12-11T00:28:57.644Z,99323.88
2022-12-11T00:31:26.590Z,99325.71
2022-12-11T00:33:57.451Z,99326.11
2022-12-11T00:36:27.385Z,99328.98
2022-12-11T00:38:56.150Z,99334.64
2022-12-11T00:41:24.959Z,99332.66
2022-12-11T00:43:53.977Z,99339.20
2022-12-11T00:46:22.984Z,99333.52
2022-12-11T00:48:51.918Z,99334.79
2022-12-11T00:51:22.832Z,99334.83
2022-12-11T00:53:52.887Z,99325.93
2022-12-11T00:56:22.705Z,99319.71
2022-12-11T00:58:51.805Z,99316.38
2022-12-11T01:01:23.379Z,99311.83
2022-12-11T01:03:56.316Z,99303.54
2022-12-11T01:06:27.233Z,99313.82
2022-12-11T01:09:15.411Z,99322.35
2022-12-11T01:11:44.825Z,99337.05
2022-12-11T01:14:14.144Z,99337.89
2022-12-11T01:16:44.422Z,99335.80
2022-12-11T01:19:13.541Z,99336.79
2022-12-11T01:21:42.207Z,99341.90
2022-12-11T01:24:12.149Z,99341.90
2022-12-11T01:26:40.927Z,99342.23
2022-12-11T01:29:09.706Z,99340.80
2022-12-11T01:31:39.625Z,99346.11
2022-12-11T01:34:08.206Z,99349.36
2022-12-11T01:36:39.060Z,99351.08
2022-12-11T01:39:07.934Z,99348.45
2022-12-11T01:41:36.533Z,99346.48
2022-12-11T01:44:29.474Z,99341.23
2022-12-11T01:46:58.925Z,99342.72
2022-12-11T01:49:28.286Z,99342.34
2022-12-11T01:52:04.335Z,99335.25
2022-12-11T01:54:33.348Z,99331.95
2022-12-11T01:57:07.424Z,99325.94
2022-12-11T01:59:38.896Z,99321.52
2022-12-11T02:02:20.009Z,99319.50
2022-12-11T02:04:49.792Z,99309.89
2022-12-11T02:07:18.475Z,99306.27
2022-12-11T02:09:48.160Z,99301.06
2022-12-11T02:12:35.380Z,99298.96
2022-12-11T02:15:16.876Z,99290.65
2022-12-11T02:17:55.082Z,99288.88
2022-12-11T02:20:28.605Z,99285.08
2022-12-11T02:23:03.106Z,99278.69
2022-12-11T02:25:33.636Z,99277.96
2022-12-11T02:28:23.404Z,99277.41
2022-12-11T02:30:56.163Z,99282.52
2022-12-11T02:33:42.813Z,99289.79
2022-12-11T02:36:12.510Z,99290.65
2022-12-11T02:38:43.012Z,99292.27
2022-12-11T02:41:12.437Z,99293.60
2022-12-11T02:43:42.350Z,99286.73
2022-12-11T02:46:11.826Z,99292.11
2022-12-11T02:48:41.318Z,99294.41
2022-12-11T02:51:10.581Z,99292.44
2022-12-11T02:53:41.597Z,99291.34
2022-12-11T02:56:20.990Z,99294.04
2022-12-11T02:58:58.533Z,99296.02
2022-12-11T03:01:28.017Z,99299.27
2022-12-11T03:03:57.123Z,99300.05
2022-12-11T03:06:33.819Z,99296.56
2022-12-11T03:09:03.222Z,99301.23
2022-12-11T03:11:31.899Z,99298.23
2022-12-11T03:14:03.372Z,99298.45
2022-12-11T03:16:36.937Z,99299.83
2022-12-11T03:19:33.011Z,99302.94
2022-12-11T03:22:10.582Z,99299.34
2022-12-11T03:24:40.701Z,99299.50
2022-12-11T03:27:31.399Z,99297.11
2022-12-11T03:30:06.316Z,99299.50
2022-12-11T03:33:02.334Z,99304.76
2022-12-11T03:35:38.419Z,99304.20
2022-12-11T03:38:11.834Z,99303.80
2022-12-11T03:40:42.964Z,99300.77
2022-12-11T03:43:12.142Z,99296.05
2022-12-11T03:45:42.444Z,99299.88
2022-12-11T03:48:12.677Z,99304.46
2022-12-11T03:50:43.344Z,99299.73
2022-12-11T03:53:12.519Z,99300.54
2022-12-11T03:55:41.304Z,99296.19
2022-12-11T03:58:10.000Z,99297.90
2022-12-11T04:00:38.965Z,99288.54
2022-12-11T04:03:14.286Z,99284.33
2022-12-11T04:05:46.710Z,99283.77
2022-12-11T04:08:17.364Z,99286.76
2022-12-11T04:10:46.122Z,99285.53
2022-12-11T04:13:14.899Z,99286.59
2022-12-11T04:15:43.734Z,99279.73
2022-12-11T04:18:31.103Z,99277.18
2022-12-11T04:21:18.564Z,99272.64
2022-12-11T04:24:06.284Z,99270.47
2022-12-11T04:26:35.174Z,99270.31
2022-12-11T04:29:04.154Z,99273.08
2022-12-11T04:31:32.925Z,99271.14
2022-12-11T04:34:01.836Z,99273.13
2022-12-11T04:36:30.516Z,99266.90
2022-12-11T04:38:59.504Z,99266.96
2022-12-11T04:41:28.300Z,99271.94
2022-12-11T04:43:56.879Z,99266.48
2022-12-11T04:46:26.109Z,99266.98
2022-12-11T04:48:57.577Z,99272.23
2022-12-11T04:51:28.465Z,99267.06
2022-12-11T04:53:58.985Z,99265.48
2022-12-11T04:56:27.467Z,99270.38
2022-12-11T04:58:56.189Z,99267.10
2022-12-11T05:01:25.106Z,99265.81
2022-12-11T05:03:53.946Z,99259.92
2022-12-11T05:06:22.847Z,99261.35
2022-12-11T05:08:51.826Z,99256.91
2022-12-11T05:11:20.427Z,99262.53
2022-12-11T05:13:49.428Z,99261.84
2022-12-11T05:16:18.372Z,99249.13
2022-12-11T05:18:48.127Z,99245.09
2022-12-11T05:21:16.890Z,99248.18
2022-12-11T05:23:45.575Z,99247.58
2022-12-11T05:26:17.868Z,99251.60
2022-12-11T05:28:47.785Z,99251.07
2022-12-11T05:31:19.256Z,99248.69
2022-12-11T05:33:49.347Z,99246.56
2022-12-11T05:36:26.814Z,99252.19
2022-12-11T05:38:55.627Z,99248.84
2022-12-11T05:41:27.165Z,99249.40
2022-12-11T05:43:55.967Z,99249.01
2022-12-11T05:46:27.276Z,99241.73
2022-12-11T05:49:00.161Z,99239.05
2022-12-11T05:51:30.448Z,99233.48
2022-12-11T05:53:58.986Z,99240.02
2022-12-11T05:56:33.108Z,99243.33
2022-12-11T05:59:04.247Z,99248.14
2022-12-11T06:01:36.969Z,99250.88
2022-12-11T06:04:07.430Z,99248.30
2022-12-11T06:06:36.920Z,99245.63
2022-12-11T06:09:07.287Z,99252.79
2022-12-11T06:11:36.486Z,99258.73
2022-12-11T06:14:05.160Z,99263.98
2022-12-11T06:16:33.983Z,99265.05
2022-12-11T06:19:03.790Z,99269.39
2022-12-11T06:21:33.474Z,99269.96
2022-12-11T06:24:04.312Z,99271.12
2022-12-11T06:26:33.094Z,99274.08
2022-12-11T06:29:01.671Z,99272.64
2022-12-11T06:31:31.215Z,99281.56
2022-12-11T06:34:00.141Z,99289.52
2022-12-11T06:36:29.067Z,99285.39
2022-12-11T06:38:57.657Z,99283.33
2022-12-11T06:41:26.556Z,99282.40
2022-12-11T06:43:55.437Z,99284.83
2022-12-11T06:46:24.199Z,99286.73
2022-12-11T06:48:52.797Z,99288.57
2022-12-11T06:51:23.417Z,99291.00
2022-12-11T06:53:53.772Z,99293.98
2022-12-11T06:56:23.173Z,99295.09
2022-12-11T06:58:52.357Z,99298.16
2022-12-11T07:01:23.863Z,99294.96
2022-12-11T07:03:57.339Z,99300.74
2022-12-11T07:06:27.399Z,99300.79
2022-12-11T07:08:56.229Z,99302.74
2022-12-11T07:11:25.430Z,99302.90
2022-12-11T07:13:55.126Z,99301.05
2022-12-11T07:16:23.774Z,99293.38
2022-12-11T07:18:53.004Z,99298.44
2022-12-11T07:21:22.309Z,99294.66
2022-12-11T07:23:51.308Z,99297.14
2022-12-11T07:26:23.227Z,99304.31
2022-12-11T07:28:54.404Z,99306.72
2022-12-11T07:31:25.284Z,99304.80
2022-12-11T07:34:04.474Z,99306.27
2022-12-11T07:36:34.187Z,99305.55
2022-12-11T07:39:03.989Z,99300.02
2022-12-11T07:41:33.607Z,99307.66
2022-12-11T07:44:03.429Z,99298.45
2022-12-11T07:46:33.965Z,99299.82
2022-12-11T07:49:03.165Z,99298.45
2022-12-11T07:51:34.224Z,99300.02
2022-12-11T07:54:05.692Z,99297.46
2022-12-11T07:56:35.757Z,99303.09
2022-12-11T07:59:05.777Z,99305.39
2022-12-11T08:01:36.798Z,99306.68
2022-12-11T08:04:10.415Z,99300.84
2022-12-11T08:06:40.430Z,99305.80
2022-12-11T08:09:17.456Z,99309.72
2022-12-11T08:11:51.529Z,99310.39
2022-12-11T08:14:21.326Z,99302.91
2022-12-11T08:16:50.320Z,99307.80
2022-12-11T08:19:19.111Z,99304.65
2022-12-11T08:21:47.904Z,99305.04
2022-12-11T08:24:20.806Z,99303.30
2022-12-11T08:26:49.887Z,99305.84
2022-12-11T08:29:18.667Z,99308.70
2022-12-11T08:31:47.769Z,99305.08
2022-12-11T08:34:16.668Z,99304.02
2022-12-11T08:36:46.032Z,99303.64
2022-12-11T08:39:15.028Z,99304.52
2022-12-11T08:41:43.847Z,99307.41
2022-12-11T08:44:16.653Z,99303.17
2022-12-11T08:46:47.048Z,99303.59
2022-12-11T08:49:16.951Z,99301.83
2022-12-11T08:51:46.461Z,99303.36
2022-12-11T08:54:15.247Z,99302.14
2022-12-11T08:56:44.036Z,99305.64
2022-12-11T08:59:13.047Z,99308.27
2022-12-11T09:01:42.331Z,99309.41
2022-12-11T09:04:11.448Z,99310.20
2022-12-11T09:06:42.872Z,99315.94
2022-12-11T09:09:13.557Z,99310.68
2022-12-11T09:11:48.550Z,99304.42
2022-12-11T09:14:17.122Z,99301.04
2022-12-11T09:16:47.988Z,99296.76
2022-12-11T09:19:18.031Z,99292.16
2022-12-11T09:21:48.109Z,99288.48
2022-12-11T09:24:17.606Z,99286.20
2022-12-11T09:26:47.728Z,99286.09
2022-12-11T09:29:17.548Z,99281.03
2022-12-11T09:31:49.656Z,99277.26
2022-12-11T09:34:24.792Z,99274.55
2022-12-11T09:36:57.832Z,99275.90
2022-12-11T09:39:26.918Z,99274.23
2022-12-11T09:42:04.925Z,99268.81
2022-12-11T09:44:45.736Z,99267.14
2022-12-11T09:47:38.014Z,99267.61
2022-12-11T09:50:10.730Z,99263.11
2022-12-11T09:52:45.867Z,99265.60
2022-12-11T09:55:25.299Z,99261.07
2022-12-11T09:58:26.373Z,99254.02
2022-12-11T10:01:10.865Z,99249.58
2022-12-11T10:04:05.835Z,99246.23
2022-12-11T10:06:43.088Z,99244.36
2022-12-11T10:09:20.529Z,99247.58
2022-12-11T10:12:08.012Z,99245.09
2022-12-11T10:15:02.983Z,99241.05
2022-12-11T10:17:33.441Z,99237.02
2022-12-11T10:20:40.822Z,99235.86
2022-12-11T10:23:20.468Z,99230.10
2022-12-11T10:25:54.283Z,99229.39
2022-12-11T10:28:24.198Z,99224.95
2022-12-11T10:31:02.962Z,99225.27
2022-12-11T10:33:58.956Z,99219.23
2022-12-11T10:36:33.480Z,99222.46
2022-12-11T10:39:02.582Z,99221.01
2022-12-11T10:41:39.581Z,99221.94
2022-12-11T10:44:23.073Z,99219.92
2022-12-11T10:47:15.905Z,99217.98
2022-12-11T10:49:56.389Z,99212.21
2022-12-11T10:52:27.847Z,99209.49
2022-12-11T10:55:05.423Z,99208.50
2022-12-11T10:57:39.446Z,99213.49
2022-12-11T11:00:09.950Z,99213.17
2022-12-11T11:02:40.591Z,99206.64
2022-12-11T11:05:26.234Z,99197.94
2022-12-11T11:08:19.918Z,99200.45
2022-12-11T11:10:56.984Z,99200.05
2022-12-11T11:13:27.920Z,99190.44
2022-12-11T11:16:02.188Z,99188.72
2022-12-11T11:18:31.906Z,99186.14
2022-12-11T11:21:01.912Z,99180.44
2022-12-11T11:23:31.207Z,99179.99
2022-12-11T11:26:02.008Z,99177.31
2022-12-11T11:28:37.511Z,99175.80
2022-12-11T11:31:09.595Z,99172.66
2022-12-11T11:33:55.648Z,99164.63
2022-12-11T11:36:30.523Z,99161.11
2022-12-11T11:39:21.067Z,99167.69
2022-12-11T11:42:15.796Z,99161.40
2022-12-11T11:45:04.580Z,99163.00
2022-12-11T11:47:43.967Z,99161.20
2022-12-11T11:50:18.477Z,99158.91
2022-12-11T11:52:51.587Z,99150.13
2022-12-11T11:55:33.274Z,99155.65
2022-12-11T11:58:16.604Z,99155.95
2022-12-11T12:00:45.487Z,99153.83
2022-12-11T12:03:19.977Z,99149.94
2022-12-11T12:05:57.397Z,99152.42
2022-12-11T12:08:46.867Z,99151.23
2022-12-11T12:11:37.990Z,99154.95
2022-12-11T12:14:43.514Z,99150.52
2022-12-11T12:17:22.928Z,99147.41
2022-12-11T12:19:55.248Z,99148.14
2022-12-11T12:22:53.623Z,99150.28
2022-12-11T12:25:42.168Z,99151.51
2022-12-11T12:28:38.507Z,99145.02
2022-12-11T12:31:42.172Z,99147.08
2022-12-11T12:34:59.027Z,99148.19
2022-12-11T12:37:30.887Z,99149.71
2022-12-11T12:40:02.744Z,99146.84
2022-12-11T12:42:39.845Z,99150.09
2022-12-11T12:45:24.657Z,99147.27
2022-12-11T12:47:53.899Z,99141.96
2022-12-11T12:50:25.693Z,99143.41
2022-12-11T12:52:55.162Z,99140.10
2022-12-11T12:55:27.552Z,99138.77
2022-12-11T12:58:02.050Z,99137.45
2022-12-11T13:00:40.121Z,99140.48
2022-12-11T13:03:23.892Z,99145.20
2022-12-11T13:06:05.503Z,99148.63
2022-12-11T13:08:48.509Z,99154.92
2022-12-11T13:11:19.410Z,99151.65
2022-12-11T13:14:02.673Z,99150.98
2022-12-11T13:16:42.960Z,99154.83
2022-12-11T13:19:24.112Z,99151.00
2022-12-11T13:22:22.824Z,99150.13
2022-12-11T13:25:00.191Z,99152.80
2022-12-11T13:27:41.088Z,99150.30
2022-12-11T13:30:16.148Z,99153.29
2022-12-11T13:33:04.230Z,99145.42
2022-12-11T13:35:34.450Z,99148.25
2022-12-11T13:38:17.545Z,99146.56
2022-12-11T13:40:50.877Z,99149.20
2022-12-11T13:43:24.006Z,99148.38
2022-12-11T13:45:57.039Z,99148.45
2022-12-11T13:48:33.134Z,99152.36
2022-12-11T13:51:03.630Z,99152.52
2022-12-11T13:53:35.038Z,99151.92
2022-12-11T13:56:14.644Z,99152.85
2022-12-11T13:58:43.658Z,99148.85
2022-12-11T14:01:23.541Z,99149.05
2022-12-11T14:04:07.325Z,99149.65
2022-12-11T14:06:37.748Z,99146.75
2022-12-11T14:09:07.627Z,99151.24
2022-12-11T14:11:42.112Z,99156.05
2022-12-11T14:14:21.407Z,99156.02
2022-12-11T14:16:52.080Z,99155.33
2022-12-11T14:19:22.883Z,99158.52
2022-12-11T14:22:04.476Z,99156.27
2022-12-11T14:24:33.546Z,99158.41
2022-12-11T14:27:05.131Z,99154.90
2022-12-11T14:29:34.305Z,99156.95
2022-12-11T14:32:05.517Z,99153.38
2022-12-11T14:34:44.915Z,99149.02
2022-12-11T14:37:16.116Z,99141.63
2022-12-11T14:39:47.059Z,99139.73
2022-12-11T14:42:22.125Z,99138.97
2022-12-11T14:44:55.857Z,99139.58
2022-12-11T14:47:39.521Z,99141.60
2022-12-11T14:50:17.412Z,99142.98
2022-12-11T14:52:54.224Z,99135.48
2022-12-11T14:55:25.028Z,99142.20
2022-12-11T14:57:59.905Z,99140.61
2022-12-11T15:00:36.624Z,99146.71
2022-12-11T15:03:22.596Z,99146.73
2022-12-11T15:05:54.803Z,99145.19
2022-12-11T15:08:28.793Z,99150.52
2022-12-11T15:11:14.939Z,99147.05
2022-12-11T15:14:01.851Z,99151.12
2022-12-11T15:16:34.692Z,99149.60
2022-12-11T15:19:04.551Z,99153.57
2022-12-11T15:21:38.771Z,99154.45
2022-12-11T15:24:19.652Z,99149.72
2022-12-11T15:26:49.521Z,99154.39
2022-12-11T15:29:42.992Z,99154.92
2022-12-11T15:32:14.759Z,99156.02
2022-12-11T15:34:52.262Z,99149.52
2022-12-11T15:37:28.840Z,99148.20
2022-12-11T15:40:00.225Z,99148.11
2022-12-11T15:42:35.006Z,99150.20
2022-12-11T15:45:07.871Z,99150.85
2022-12-11T15:47:36.769Z,99153.56
2022-12-11T15:50:19.733Z,99153.80
2022-12-11T15:52:51.785Z,99150.10
2022-12-11T15:55:22.044Z,99149.98
2022-12-11T15:57:57.490Z,99152.90
2022-12-11T16:00:28.483Z,99157.65
2022-12-11T16:02:58.059Z,99161.23
2022-12-11T16:05:28.400Z,99159.67
2022-12-11T16:08:00.642Z,99156.73
2022-12-11T16:10:31.598Z,99155.27
2022-12-11T16:13:01.225Z,99155.80
2022-12-11T16:15:30.474Z,99155.96
2022-12-11T16:18:10.897Z,99156.97
2022-12-11T16:20:43.362Z,99166.40
2022-12-11T16:23:15.463Z,99166.54
2022-12-11T16:25:45.898Z,99164.11
2022-12-11T16:28:18.510Z,99160.47
2022-12-11T16:30:48.072Z,99159.73
2022-12-11T16:33:19.964Z,99162.02
2022-12-11T16:35:50.302Z,99160.29
2022-12-11T16:38:19.804Z,99150.73
2022-12-11T16:40:50.035Z,99157.89
2022-12-11T16:43:20.810Z,99152.25
2022-12-11T16:45:57.308Z,99154.52
2022-12-11T16:48:27.137Z,99154.19
2022-12-11T16:50:59.105Z,99147.82
2022-12-11T16:53:28.303Z,99150.53
2022-12-11T16:55:58.221Z,99144.03
2022-12-11T16:58:28.276Z,99147.25
2022-12-11T17:01:03.930Z,99148.42
2022-12-11T17:03:33.779Z,99145.08
2022-12-11T17:06:07.744Z,99145.08
2022-12-11T17:08:38.899Z,99140.84
2022-12-11T17:11:12.164Z,99139.19
2022-12-11T17:13:41.954Z,99132.29
2022-12-11T17:16:14.094Z,99135.05
2022-12-11T17:18:47.967Z,99131.33
2022-12-11T17:21:19.922Z,99133.21
2022-12-11T17:23:50.858Z,99137.38
2022-12-11T17:26:22.400Z,99138.13
2022-12-11T17:28:56.212Z,99134.83
2022-12-11T17:31:29.257Z,99137.64
2022-12-11T17:34:03.898Z,99138.20
2022-12-11T17:36:35.042Z,99136.70
2022-12-11T17:39:06.833Z,99138.59
2022-12-11T17:41:37.306Z,99136.11
2022-12-11T17:44:12.988Z,99136.83
2022-12-11T17:46:43.602Z,99136.90
2022-12-11T17:49:14.569Z,99138.11
2022-12-11T17:51:45.162Z,99138.88
2022-12-11T17:54:15.694Z,99137.86
2022-12-11T17:56:45.821Z,99138.59
2022-12-11T17:59:15.540Z,99140.70
2022-12-11T18:01:46.864Z,99142.91
2022-12-11T18:04:18.431Z,99146.69
2022-12-11T18:06:48.461Z,99149.89
2022-12-11T18:09:19.393Z,99151.09
2022-12-11T18:11:49.608Z,99148.70
2022-12-11T18:14:20.762Z,99154.91
2022-12-11T18:16:52.234Z,99150.60
2022-12-11T18:19:24.062Z,99149.75
2022-12-11T18:21:59.320Z,99151.80
2022-12-11T18:24:33.582Z,99151.73
2022-12-11T18:27:05.208Z,99152.58
2022-12-11T18:29:35.301Z,99152.72
2022-12-11T18:32:07.162Z,99153.72
2022-12-11T18:34:40.137Z,99152.17
2022-12-11T18:37:10.681Z,99152.63
2022-12-11T18:39:43.140Z,99148.55
2022-12-11T18:45:06.331Z,99152.42
2022-12-11T18:47:37.973Z,99153.60
2022-12-11T18:50:13.603Z,99157.19
2022-12-11T18:52:43.849Z,99151.84
2022-12-11T18:55:15.659Z,99156.27
2022-12-11T18:57:46.752Z,99146.34
2022-12-11T19:00:20.749Z,99148.48
2022-12-11T19:02:53.842Z,99147.89
2022-12-11T19:05:26.632Z,99149.02
2022-12-11T19:08:02.603Z,99148.05
2022-12-11T19:10:33.599Z,99148.83
2022-12-11T19:13:05.310Z,99145.08
2022-12-11T19:15:40.252Z,99144.48
2022-12-11T19:18:12.318Z,99138.48
2022-12-11T19:20:50.619Z,99129.66
2022-12-11T19:23:25.731Z,99126.09
2022-12-11T19:25:55.643Z,99129.24
2022-12-11T19:28:28.532Z,99128.44
2022-12-11T19:30:59.753Z,99131.06
2022-12-11T19:33:35.947Z,99130.79
2022-12-11T19:36:10.842Z,99133.85
2022-12-11T19:38:42.638Z,99137.28
2022-12-11T19:41:41.209Z,99135.63
2022-12-11T19:44:12.319Z,99135.99
2022-12-11T19:46:45.755Z,99132.52
2022-12-11T19:49:20.851Z,99133.27
2022-12-11T19:51:51.935Z,99133.06
2022-12-11T19:54:22.435Z,99134.55
2022-12-11T19:56:56.918Z,99135.18
2022-12-11T19:59:34.808Z,99136.92
2022-12-11T20:02:05.778Z,99132.36
2022-12-11T20:04:43.817Z,99132.40
2022-12-11T20:07:14.760Z,99137.41
2022-12-11T20:09:45.108Z,99133.98
2022-12-11T20:12:20.733Z,99128.52
2022-12-11T20:14:51.849Z,99133.86
2022-12-11T20:17:25.885Z,99126.33
2022-12-11T20:19:58.074Z,99128.06
2022-12-11T20:22:28.959Z,99129.23
2022-12-11T20:25:00.865Z,99128.33
2022-12-11T20:27:31.681Z,99129.02
2022-12-11T20:30:02.220Z,99127.98
2022-12-11T20:32:36.031Z,99125.39
2022-12-11T20:35:09.524Z,99124.96
2022-12-11T20:37:41.582Z,99126.25
2022-12-11T20:40:14.809Z,99128.17
2022-12-11T20:42:47.493Z,99121.40
2022-12-11T20:45:19.246Z,99129.20
2022-12-11T20:47:49.838Z,99123.88
2022-12-11T20:50:20.477Z,99120.40
2022-12-11T20:52:51.937Z,99118.83
2022-12-11T20:55:23.870Z,99119.44
2022-12-11T20:57:56.972Z,99116.98
2022-12-11T21:00:27.858Z,99113.31
2022-12-11T21:02:58.117Z,99113.29
2022-12-11T21:05:28.228Z,99113.78
2022-12-11T21:07:59.290Z,99112.69
2022-12-11T21:10:28.807Z,99109.16
2022-12-11T21:12:58.713Z,99109.55
2022-12-11T21:15:31.285Z,99109.10
2022-12-11T21:18:02.044Z,99108.14
2022-12-11T21:20:32.287Z,99112.49
2022-12-11T21:23:01.653Z,99109.67
2022-12-11T21:25:32.303Z,99109.42
2022-12-11T21:28:02.654Z,99108.05
2022-12-11T21:30:32.112Z,99107.21
2022-12-11T21:33:04.603Z,99110.52
2022-12-11T21:35:33.941Z,99110.09
2022-12-11T21:38:02.900Z,99109.73
2022-12-11T21:40:31.981Z,99103.92
2022-12-11T21:43:01.128Z,99105.52
2022-12-11T21:48:18.838Z,99110.76
2022-12-11T21:50:47.919Z,99110.42
2022-12-11T21:53:17.064Z,99113.09
2022-12-11T21:55:46.119Z,99109.14
2022-12-11T21:58:14.800Z,99110.60
2022-12-11T22:00:45.954Z,99113.27
2022-12-11T22:03:15.661Z,99111.70
2022-12-11T22:06:02.800Z,99107.86
2022-12-11T22:08:42.620Z,99108.95
2022-12-11T22:11:11.620Z,99110.84
2022-12-11T22:13:40.701Z,99104.08
2022-12-11T22:16:10.098Z,99100.80
2022-12-11T22:18:39.501Z,99099.52
2022-12-11T22:21:08.399Z,99099.07
2022-12-11T22:23:40.865Z,99096.63
2022-12-11T22:26:11.455Z,99101.54
2022-12-11T22:28:41.420Z,99097.95
2022-12-11T22:31:13.222Z,99092.80
2022-12-11T22:33:43.972Z,99092.41
2022-12-11T22:36:13.299Z,99096.04
2022-12-11T22:38:42.200Z,99091.77
2022-12-11T22:41:18.872Z,99097.00
2022-12-11T22:43:51.139Z,99098.34
2022-12-11T22:46:22.051Z,99102.58
2022-12-11T22:48:51.062Z,99102.70
2022-12-11T22:51:20.059Z,99104.81
2022-12-11T22:53:48.963Z,99102.73
2022-12-11T22:56:17.528Z,99101.40
2022-12-11T22:58:46.740Z,99098.58
2022-12-11T23:01:18.712Z,99095.29
2022-12-11T23:03:48.029Z,99089.04
2022-12-11T23:06:22.922Z,99089.13
2022-12-11T23:08:55.289Z,99088.02
2022-12-11T23:11:28.504Z,99088.66
2022-12-11T23:13:58.819Z,99090.55
2022-12-11T23:16:29.026Z,99090.40
2022-12-11T23:18:58.543Z,99089.44
2022-12-11T23:21:28.870Z,99086.73
2022-12-11T23:23:58.891Z,99084.33
2022-12-11T23:26:28.612Z,99089.25
2022-12-11T23:28:58.916Z,99085.12
2022-12-11T23:31:29.117Z,99084.23
2022-12-11T23:33:58.146Z,99085.89
2022-12-11T23:36:28.782Z,99089.95
2022-12-11T23:38:57.860Z,99088.58
2022-12-11T23:41:26.448Z,99090.06
2022-12-11T23:43:55.647Z,99081.89
2022-12-11T23:46:25.965Z,99088.30
2022-12-11T23:48:55.571Z,99087.85
2022-12-11T23:51:25.793Z,99086.44
2022-12-11T23:53:55.055Z,99088.45
2022-12-11T23:56:29.176Z,99087.35
2022-12-11T23:58:58.301Z,99088.08
